San Luis, CO (81152)

10:00 PM MST on February 11, 2016 (GMT -0700)
Rio Grand Gorge | | Change Station
CLOSE
Current Station
Personal Weather Station
Location: Jaroso, CO
Elevation: 7513 ft
Nearby Weather Stations

Elev 7513 ft 37.00 °N, 105.71 °W | Updated 3 seconds ago

Clear
Clear
28.0 °F
Feels Like 28 °F
N
1.8
Wind Variable Wind from SW
Gusts 2.5 mph

Today
High -- | Low -- °F
--% Chance of Precip.
Yesterday
High -- | Low -- °F
Precip. -- in
Pressure 30.43 in
Visibility 10.0 miles
Clouds Clear
Windchill 28 °F
Dew Point 22 °F
Humidity 79%
Rainfall 0.00 in
Snow Depth Not available.
6:56 AM 5:37 PM
Waxing Crescent, 17% visible
METAR KALS 120452Z AUTO 30006KT 10SM CLR M02/M06 A3039 RMK AO2 SLP304 T10221061
Pressure 30.43 in
Visibility 10.0 miles
Clouds Clear
Windchill 28 °F
Dew Point 22 °F
Humidity 79%
Rainfall 0.00 in
Snow Depth Not available.
6:56 AM 5:37 PM
Waxing Crescent, 17% visible
METAR KALS 120452Z AUTO 30006KT 10SM CLR M02/M06 A3039 RMK AO2 SLP304 T10221061

10-Day Weather Forecast

Almanac

Astronomy

Feb. 11, 2016 Rise Set
Actual Time
Civil Twilight
Nautical Twilight
Astronomical Twilight
Moon
Length of Visible Light
Length of Day
Tomorrow will be .
, % of the Moon is Illuminated

Today's Extremes

State Highs State Lows

Community

WunderPhotos

Upload Photos

1,892,265 photos uploaded!

WunderBlog® & News

Nearby

Air Quality

  Air Quality AQ Index Pollutant
Not available.

Snow Depth

Station Depth Elevation

Earthquake Activity

City Distance Mag. Time & Date
Minimum magnitude displayed is 2.5.

Coastal Water Temperatures

Place Temperature

Stations

Nearby Weather Stations

Station Location Temp. Windchill Dew Point Humidity Wind Precip. Elev Updated Type
                   

Watches & Warnings

There are currently no watches in effect.